LiveATC.Net - Listen to live air traffic control over the Internet!


ICAO: 3CK  IATA: 3CK   Airport: Lake in the Hills Airport
City: Chicago/Lake In The Hills   State/Province: Illinois
Country: United States   Continent: North America
KDPA METAR Weather: KDPA 180352Z 19009KT 10SM CLR 11/06 A3015 RMK AO2 SLP209 T01060061
3CK Flight Activity (FlightAware)
3CK Airport Info   (AirNav) (iFlightPlanner)
3CK VFR Sectional Chart   (iFlightPlanner) 
3CK IFR Low Chart   (iFlightPlanner) 
3CK/KBUU CTAF
Feed Status: UP   Listeners: 1
Listen right in your browser - requires Flash (in browser, requires Flash)
Click here to listen with your own player (launches your MP3 player)
3CK/KBUU CTAF Audio Archives
FacilityFrequency
Lake in the Hills CTAF123.050


NOTICE

Unauthorized use prohibited. See LiveATC.net Terms of Service


Find LiveATC Audio Streams


Airport/ARTCC Code

Frequency Search
(e.g., 124.400, 128.75)
Site-wide search
 


Browse LiveATC Feeds
LiveATC Coverage Map
Top 50 LiveATC Feeds
Bad Weather Areas

LiveATC FAQ
Offer a LiveATC Feed
Contact LiveATC.net
Press Inquiries

LiveATC on iPhone
LiveATC on Android

Windows Phone
Windows 8/10

LiveATC Mobile
(Mobile browser)

ATC Audio Archives
Interesting Recordings

LiveATC Forums


Home Page
About LiveATC.net
Make a Donation
LiveATC Store

Terms of Use
Privacy Policy

Canadian Air Freqs

AIRMETs/SIGMETs

FAA Airport Status
Nat'l Airspace Status
Arrival Demand Charts


Server Software By:
Icecast.org
Liquidsoap